Time;durP1;ratioP1;P1;durP2;ratioP2;P2;SDS_P1;SDS_P2;PMS_P1;PMS_P2;Temp;Humidity;BMP_temperature;BMP_pressure;BME280_temperature;BME280_humidity;BME280_pressure;Samples;Min_cycle;Max_cycle;Signal;HPM_P1;HPM_P2
2022/05/12 00:01:33;;;;;;;8.07;5.22;;;18.20;99.90;;;;;;5054029;28;20033;-73
2022/05/12 00:03:58;;;;;;;7.13;5.35;;;18.10;99.90;;;;;;5066361;28;20029;-72
2022/05/12 00:06:24;;;;;;;6.68;5.40;;;18.30;99.90;;;;;;5067110;28;20031;-74
2022/05/12 00:08:49;;;;;;;7.60;4.97;;;18.40;99.90;;;;;;5058964;28;20119;-72
2022/05/12 00:11:15;;;;;;;9.10;5.45;;;18.60;99.90;;;;;;5059661;28;20017;-71
2022/05/12 00:13:40;;;;;;;7.18;4.60;;;18.50;99.90;;;;;;5066683;28;20379;-72
2022/05/12 00:16:06;;;;;;;5.55;4.68;;;18.50;99.90;;;;;;5052042;28;20403;-72
2022/05/12 00:18:32;;;;;;;6.68;4.97;;;18.60;99.90;;;;;;5059833;28;20378;-72
2022/05/12 00:20:58;;;;;;;5.50;5.00;;;18.60;99.90;;;;;;5059467;28;20527;-72
2022/05/12 00:23:26;;;;;;;5.63;5.10;;;18.60;99.90;;;;;;5065758;28;20037;-74
2022/05/12 00:25:53;;;;;;;6.53;5.82;;;18.30;99.90;;;;;;5065136;28;20032;-74
2022/05/12 00:28:21;;;;;;;10.98;5.85;;;17.80;99.90;;;;;;5059795;28;20033;-74
2022/05/12 00:30:48;;;;;;;6.03;5.38;;;17.50;99.90;;;;;;5072285;28;20028;-75
2022/05/12 00:33:15;;;;;;;7.15;5.18;;;17.70;99.90;;;;;;5073071;28;20107;-75
2022/05/12 00:35:42;;;;;;;8.88;5.85;;;17.70;99.90;;;;;;5072867;28;20032;-74
2022/05/12 00:38:09;;;;;;;5.95;5.10;;;17.90;99.90;;;;;;5071543;28;20024;-75
2022/05/12 00:40:35;;;;;;;6.03;5.43;;;17.90;99.90;;;;;;5058548;28;20025;-75
2022/05/12 00:43:03;;;;;;;12.73;5.50;;;18.00;99.90;;;;;;5065456;28;20387;-74
2022/05/12 00:45:32;;;;;;;7.35;6.07;;;18.00;99.90;;;;;;5065706;28;20601;-73
2022/05/12 00:47:58;;;;;;;8.05;5.93;;;17.90;99.90;;;;;;5060926;28;20438;-74
2022/05/12 00:50:38;;;;;;;8.68;5.65;;;17.80;99.90;;;;;;5071864;28;20067;-74
2022/05/12 00:53:06;;;;;;;7.57;5.70;;;17.60;99.90;;;;;;5072593;28;20034;-74
2022/05/12 00:55:36;;;;;;;7.72;6.15;;;17.70;99.90;;;;;;5068276;28;20475;-74
2022/05/12 00:58:06;;;;;;;7.22;5.80;;;17.80;99.90;;;;;;5063796;28;20035;-74
2022/05/12 01:00:32;;;;;;;8.13;6.15;;;17.50;99.90;;;;;;5057420;28;20513;-74
2022/05/12 01:03:03;;;;;;;7.03;6.07;;;17.50;99.90;;;;;;5060142;28;20055;-75
2022/05/12 01:05:30;;;;;;;8.38;6.25;;;17.50;99.90;;;;;;5065834;28;20043;-74
2022/05/12 01:07:56;;;;;;;6.68;6.07;;;17.40;99.90;;;;;;5056851;28;20036;-73
2022/05/12 01:10:23;;;;;;;7.05;6.35;;;17.40;99.90;;;;;;5051838;28;20026;-74
2022/05/12 01:12:50;;;;;;;9.38;6.05;;;17.40;99.90;;;;;;5052776;28;20040;-74
2022/05/12 01:15:17;;;;;;;10.15;6.38;;;17.40;99.90;;;;;;5052432;28;20028;-75
2022/05/12 01:17:43;;;;;;;8.15;5.95;;;17.30;99.90;;;;;;5052747;28;20070;-76
2022/05/12 01:20:11;;;;;;;10.18;5.90;;;17.40;99.90;;;;;;5059443;28;20035;-75
2022/05/12 01:23:05;;;;;;;6.72;5.82;;;17.20;99.90;;;;;;5060302;28;20047;-75
2022/05/12 01:25:31;;;;;;;6.95;5.90;;;17.20;99.90;;;;;;5055514;28;20025;-75
2022/05/12 01:27:57;;;;;;;7.80;6.50;;;17.00;99.90;;;;;;5067553;28;20039;-74
2022/05/12 01:30:24;;;;;;;7.72;6.13;;;16.70;99.90;;;;;;5063401;28;20021;-75
2022/05/12 01:32:50;;;;;;;6.82;6.10;;;16.80;99.90;;;;;;5054387;28;20153;-75
2022/05/12 01:35:19;;;;;;;7.38;6.03;;;16.70;99.90;;;;;;5063671;28;20024;-75
2022/05/12 01:37:46;;;;;;;6.20;5.50;;;16.70;99.90;;;;;;5054502;28;20087;-74
2022/05/12 01:40:19;;;;;;;6.50;5.32;;;16.90;99.90;;;;;;5051597;28;20112;-73
2022/05/12 01:42:45;;;;;;;6.97;5.50;;;17.10;99.90;;;;;;5051806;28;20029;-73
2022/05/12 01:45:12;;;;;;;7.50;5.43;;;17.10;99.90;;;;;;5051644;28;20017;-73
2022/05/12 01:47:38;;;;;;;7.63;5.82;;;17.10;99.90;;;;;;5057513;28;20099;-73
2022/05/12 01:50:06;;;;;;;9.10;5.82;;;17.00;99.90;;;;;;5071775;28;20565;-73
2022/05/12 01:52:31;;;;;;;8.55;5.70;;;16.90;99.90;;;;;;5057078;28;20395;-73
2022/05/12 01:54:57;;;;;;;6.25;5.55;;;16.90;99.90;;;;;;5058589;28;20536;-73
2022/05/12 01:57:23;;;;;;;5.45;4.95;;;17.00;99.90;;;;;;5065039;28;20561;-73
2022/05/12 01:59:49;;;;;;;10.27;5.40;;;16.90;99.90;;;;;;5051579;28;20166;-73
2022/05/12 02:02:14;;;;;;;5.53;4.80;;;17.00;99.90;;;;;;5084085;28;20021;-73
2022/05/12 02:04:40;;;;;;;9.10;5.30;;;17.00;99.90;;;;;;5058196;28;20051;-73
2022/05/12 02:07:07;;;;;;;6.28;5.68;;;17.00;99.90;;;;;;5064980;28;20040;-73
2022/05/12 02:09:32;;;;;;;5.93;5.35;;;17.00;99.90;;;;;;5051392;28;20021;-73
2022/05/12 02:11:58;;;;;;;7.57;5.18;;;16.80;99.90;;;;;;5049454;28;20020;-73
2022/05/12 02:14:24;;;;;;;5.68;5.15;;;16.80;99.90;;;;;;5051318;28;20025;-75
2022/05/12 02:16:49;;;;;;;6.53;5.13;;;16.90;99.90;;;;;;5051444;28;20475;-75
2022/05/12 02:19:15;;;;;;;7.05;5.00;;;17.00;99.90;;;;;;5063645;28;20032;-75
2022/05/12 02:21:40;;;;;;;5.85;5.28;;;16.80;99.90;;;;;;5049571;28;20033;-75
2022/05/12 02:24:06;;;;;;;7.75;5.05;;;16.90;99.90;;;;;;5064535;28;20028;-73
2022/05/12 02:26:32;;;;;;;7.45;5.28;;;16.90;99.90;;;;;;5071205;28;20033;-74
2022/05/12 02:28:59;;;;;;;8.98;5.30;;;17.00;99.90;;;;;;5057906;28;20032;-73
2022/05/12 02:31:24;;;;;;;6.68;5.15;;;16.90;99.90;;;;;;5050675;28;20111;-73
2022/05/12 02:33:50;;;;;;;7.47;4.93;;;16.80;99.90;;;;;;5049958;28;20116;-73
2022/05/12 02:36:16;;;;;;;6.75;5.45;;;16.90;99.90;;;;;;5064728;28;20099;-74
2022/05/12 02:38:42;;;;;;;6.25;5.10;;;16.90;99.90;;;;;;5064589;28;20025;-74
2022/05/12 02:41:07;;;;;;;6.38;5.10;;;16.90;99.90;;;;;;5057219;28;20059;-73
2022/05/12 02:43:33;;;;;;;6.60;4.47;;;16.90;99.90;;;;;;5069864;28;20063;-73
2022/05/12 02:46:02;;;;;;;6.30;5.10;;;16.80;99.90;;;;;;5070897;28;20032;-73
2022/05/12 02:48:31;;;;;;;5.28;4.78;;;17.00;99.90;;;;;;5071002;28;20052;-74
2022/05/12 02:50:57;;;;;;;6.47;5.30;;;17.00;99.90;;;;;;5069091;28;20027;-74
2022/05/12 02:53:24;;;;;;;6.93;5.18;;;16.90;99.90;;;;;;5070669;28;20024;-76
2022/05/12 02:55:49;;;;;;;6.03;5.43;;;17.00;99.90;;;;;;5050871;28;20442;-76
2022/05/12 02:58:15;;;;;;;6.13;5.05;;;16.90;99.90;;;;;;5049758;28;20021;-75
2022/05/12 03:00:41;;;;;;;7.05;5.22;;;16.90;99.90;;;;;;5057141;28;20445;-76
2022/05/12 03:03:07;;;;;;;5.63;5.13;;;16.70;99.90;;;;;;5057838;28;20025;-75
2022/05/12 03:05:35;;;;;;;5.30;4.80;;;16.80;99.90;;;;;;5066192;28;20032;-76
2022/05/12 03:08:00;;;;;;;7.22;5.03;;;16.80;99.90;;;;;;5057492;28;20536;-76
2022/05/12 03:10:26;;;;;;;6.68;5.00;;;16.60;99.90;;;;;;5052610;28;20025;-76
2022/05/12 03:12:52;;;;;;;5.30;4.80;;;16.60;99.90;;;;;;5054550;28;20047;-75
2022/05/12 03:15:18;;;;;;;5.60;4.72;;;16.50;99.90;;;;;;5054437;28;20029;-77
2022/05/12 03:17:44;;;;;;;6.55;5.03;;;16.60;99.90;;;;;;5054377;28;20402;-76
2022/05/12 03:20:13;;;;;;;6.03;5.53;;;16.60;99.90;;;;;;5059815;28;20051;-75
2022/05/12 03:22:39;;;;;;;5.80;5.30;;;16.60;99.90;;;;;;5058869;28;20115;-77
2022/05/12 03:25:06;;;;;;;6.30;5.10;;;16.50;99.90;;;;;;5054101;28;20117;-76
2022/05/12 03:27:32;;;;;;;6.05;5.22;;;16.50;99.90;;;;;;5067596;28;20386;-76
2022/05/12 03:29:58;;;;;;;5.63;5.00;;;16.60;99.90;;;;;;5060103;28;20029;-73
2022/05/12 03:32:24;;;;;;;5.70;5.20;;;16.70;99.90;;;;;;5059594;28;20094;-75
2022/05/12 03:34:50;;;;;;;7.22;4.85;;;16.80;99.90;;;;;;5054112;28;20534;-73
2022/05/12 03:37:16;;;;;;;6.25;5.65;;;16.90;99.90;;;;;;5052727;28;20116;-74
2022/05/12 03:39:43;;;;;;;7.57;5.22;;;16.80;99.90;;;;;;5054063;28;20124;-75
2022/05/12 03:42:10;;;;;;;8.85;4.78;;;16.80;99.90;;;;;;5067022;28;20075;-76
2022/05/12 03:44:50;;;;;;;6.22;5.20;;;16.70;99.90;;;;;;5052580;28;20128;-75
2022/05/12 03:47:21;;;;;;;7.70;6.90;;;16.70;99.90;;;;;;5067329;28;20154;-75
2022/05/12 03:49:57;;;;;;;7.55;6.78;;;16.70;99.90;;;;;;5062647;28;20479;-75
2022/05/12 03:52:23;;;;;;;8.82;6.05;;;16.70;99.90;;;;;;5051903;28;20032;-75
2022/05/12 03:54:49;;;;;;;6.20;5.60;;;16.60;99.90;;;;;;5053566;28;20033;-75
2022/05/12 03:57:15;;;;;;;5.88;5.30;;;16.60;99.90;;;;;;5057865;28;20532;-75
2022/05/12 03:59:41;;;;;;;5.50;5.00;;;16.80;99.90;;;;;;5062744;28;20107;-76
2022/05/12 04:02:13;;;;;;;5.82;5.13;;;16.90;99.90;;;;;;5071704;28;20071;-75
2022/05/12 04:04:40;;;;;;;5.57;5.05;;;16.90;99.90;;;;;;5059190;28;20033;-75
2022/05/12 04:07:06;;;;;;;7.05;4.95;;;17.00;99.90;;;;;;5062744;28;20027;-75
2022/05/12 04:09:32;;;;;;;8.23;5.03;;;17.00;99.90;;;;;;5066432;28;20028;-74
2022/05/12 04:11:57;;;;;;;6.35;4.88;;;17.00;99.90;;;;;;5059480;28;20024;-74
2022/05/12 04:14:23;;;;;;;6.32;5.10;;;17.00;99.90;;;;;;5060554;28;20051;-75
2022/05/12 04:16:49;;;;;;;5.43;4.90;;;16.90;99.90;;;;;;5072219;28;20111;-73
2022/05/12 04:19:15;;;;;;;6.57;5.00;;;17.10;99.90;;;;;;5060826;28;20090;-72
2022/05/12 04:21:41;;;;;;;5.43;4.97;;;17.00;99.90;;;;;;5052473;28;20025;-73
2022/05/12 04:24:08;;;;;;;7.97;5.70;;;16.90;99.90;;;;;;5065738;28;20041;-74
2022/05/12 04:26:36;;;;;;;6.00;4.93;;;16.90;99.90;;;;;;5053604;28;20052;-75
2022/05/12 04:29:02;;;;;;;6.38;5.07;;;16.80;99.90;;;;;;5053233;28;20100;-73
2022/05/12 04:31:28;;;;;;;5.65;5.15;;;16.80;99.90;;;;;;5064397;28;20021;-74
2022/05/12 04:36:38;;;;;;;5.53;4.57;;;17.10;99.90;;;;;;5053031;28;20032;-74
2022/05/12 04:39:04;;;;;;;7.05;4.30;;;17.10;99.90;;;;;;5051660;28;20033;-74
2022/05/12 04:41:31;;;;;;;5.55;4.30;;;17.10;99.90;;;;;;5060979;28;20036;-74
2022/05/12 04:43:58;;;;;;;5.70;4.85;;;17.10;99.90;;;;;;5059283;28;20387;-74
2022/05/12 04:46:25;;;;;;;6.15;4.70;;;17.20;99.90;;;;;;5062472;28;20036;-74
2022/05/12 04:48:51;;;;;;;5.40;4.65;;;17.40;99.90;;;;;;5066360;28;20467;-74
2022/05/12 04:51:17;;;;;;;4.93;4.40;;;17.40;99.90;;;;;;5052182;28;20025;-74
2022/05/12 04:53:42;;;;;;;6.55;4.78;;;17.50;99.90;;;;;;5065539;28;20035;-74
2022/05/12 04:56:08;;;;;;;5.75;4.68;;;17.50;99.90;;;;;;5052669;28;20035;-74
2022/05/12 04:58:34;;;;;;;5.47;4.38;;;17.60;99.90;;;;;;5066005;28;20111;-75
2022/05/12 05:00:59;;;;;;;5.63;4.40;;;17.60;99.90;;;;;;5070606;28;20478;-74
2022/05/12 05:03:25;;;;;;;6.28;4.13;;;17.60;99.90;;;;;;5060729;28;20058;-74
2022/05/12 05:05:50;;;;;;;5.07;4.00;;;17.50;99.90;;;;;;5050993;28;20120;-74
2022/05/12 05:08:19;;;;;;;4.85;4.07;;;17.50;99.90;;;;;;5058764;28;20597;-75
2022/05/12 05:10:45;;;;;;;5.90;3.90;;;17.70;99.90;;;;;;5062046;28;20029;-74
2022/05/12 05:13:10;;;;;;;4.85;3.92;;;17.60;99.90;;;;;;5054929;28;20093;-74
2022/05/12 05:15:36;;;;;;;5.32;3.78;;;17.50;99.90;;;;;;5062649;28;20036;-74
2022/05/12 05:18:03;;;;;;;6.55;3.78;;;17.50;99.90;;;;;;5052299;28;20032;-73
2022/05/12 05:20:30;;;;;;;4.32;3.38;;;17.50;99.90;;;;;;5051626;28;20022;-73
2022/05/12 05:22:56;;;;;;;5.80;4.10;;;17.50;99.90;;;;;;5054744;28;20032;-73
2022/05/12 05:25:23;;;;;;;4.70;3.83;;;17.60;99.90;;;;;;5061364;28;20032;-73
2022/05/12 05:27:51;;;;;;;6.90;3.88;;;17.50;99.90;;;;;;5051552;28;20033;-74
2022/05/12 05:30:21;;;;;;;6.18;3.75;;;17.60;99.90;;;;;;5060910;28;20108;-74
2022/05/12 05:32:47;;;;;;;5.57;3.55;;;17.60;99.90;;;;;;5067499;28;20084;-74
2022/05/12 05:35:13;;;;;;;6.82;4.30;;;17.80;99.90;;;;;;5051839;28;20055;-74
2022/05/12 05:37:40;;;;;;;7.53;3.80;;;17.90;99.90;;;;;;5055129;28;20029;-74
2022/05/12 05:40:06;;;;;;;5.28;3.40;;;18.00;99.90;;;;;;5061734;28;20040;-74
2022/05/12 05:42:32;;;;;;;4.95;3.30;;;18.10;99.90;;;;;;5054710;28;20143;-74
2022/05/12 05:44:58;;;;;;;5.85;3.22;;;18.20;99.90;;;;;;5061235;28;20455;-73
2022/05/12 05:47:24;;;;;;;6.03;3.03;;;18.30;99.90;;;;;;5065118;28;20039;-76
2022/05/12 05:49:49;;;;;;;7.85;3.42;;;18.40;99.90;;;;;;5052002;28;20048;-76
2022/05/12 05:54:59;;;;;;;4.07;3.10;;;18.50;99.90;;;;;;5052016;28;20163;-74
2022/05/12 05:57:29;;;;;;;6.78;3.10;;;18.40;99.90;;;;;;5065280;28;20056;-73
2022/05/12 05:59:59;;;;;;;5.88;2.78;;;18.50;99.90;;;;;;5065096;28;20474;-74
2022/05/12 06:02:25;;;;;;;8.45;3.38;;;18.60;99.90;;;;;;5063409;28;20033;-74
2022/05/12 06:04:51;;;;;;;5.45;2.90;;;18.50;99.90;;;;;;5064745;28;20040;-74
2022/05/12 06:07:16;;;;;;;6.15;3.20;;;18.50;99.90;;;;;;5051610;28;20425;-74
2022/05/12 06:09:43;;;;;;;5.18;3.05;;;18.50;99.90;;;;;;5052479;28;20104;-74
2022/05/12 06:12:10;;;;;;;4.68;3.00;;;18.50;99.90;;;;;;5063354;28;20051;-73
2022/05/12 06:14:36;;;;;;;6.22;2.78;;;18.60;99.90;;;;;;5063649;28;20242;-74
2022/05/12 06:17:01;;;;;;;4.90;2.83;;;18.70;99.90;;;;;;5059379;28;20478;-74
2022/05/12 06:19:27;;;;;;;4.72;2.80;;;18.70;99.90;;;;;;5058118;28;20035;-74
2022/05/12 06:21:52;;;;;;;4.32;2.65;;;18.60;99.90;;;;;;5063418;28;20033;-74
2022/05/12 06:24:18;;;;;;;5.82;2.60;;;18.60;99.90;;;;;;5051872;28;20086;-73
2022/05/12 06:26:44;;;;;;;3.88;2.53;;;18.80;99.90;;;;;;5064142;28;20040;-74
2022/05/12 06:29:10;;;;;;;3.83;2.75;;;18.90;99.90;;;;;;5051347;28;20029;-74
2022/05/12 06:31:35;;;;;;;5.13;2.67;;;18.90;99.90;;;;;;5049367;28;20025;-74
2022/05/12 06:34:01;;;;;;;4.45;2.83;;;19.00;99.90;;;;;;5051285;28;20021;-74
2022/05/12 06:36:28;;;;;;;5.55;2.88;;;19.00;99.90;;;;;;5051284;28;20032;-74
2022/05/12 06:38:54;;;;;;;6.78;2.50;;;19.10;99.90;;;;;;5066583;28;20111;-73
2022/05/12 06:41:20;;;;;;;5.63;2.83;;;19.20;99.90;;;;;;5054537;28;20490;-74
2022/05/12 06:43:46;;;;;;;9.23;3.05;;;19.20;99.90;;;;;;5055024;28;20445;-74
2022/05/12 06:46:15;;;;;;;5.32;2.72;;;19.20;99.90;;;;;;5054987;28;20025;-74
2022/05/12 06:48:42;;;;;;;7.40;2.88;;;19.20;99.90;;;;;;5053732;28;20032;-76
2022/05/12 06:51:08;;;;;;;5.93;3.10;;;19.00;99.90;;;;;;5054225;28;20013;-74
2022/05/12 06:53:34;;;;;;;5.07;2.80;;;19.00;99.90;;;;;;5054895;28;20021;-74
2022/05/12 06:55:59;;;;;;;4.55;2.65;;;19.20;99.90;;;;;;5062612;28;20551;-74
2022/05/12 06:58:25;;;;;;;6.85;3.05;;;19.50;99.90;;;;;;5061249;28;20399;-75
2022/05/12 07:00:50;;;;;;;5.65;3.15;;;19.70;99.90;;;;;;5065568;28;20455;-74
2022/05/12 07:03:17;;;;;;;6.63;3.00;;;19.70;99.90;;;;;;5056051;28;20036;-75
2022/05/12 07:05:44;;;;;;;5.13;2.83;;;19.70;99.90;;;;;;5066352;28;20021;-75
2022/05/12 07:08:10;;;;;;;4.38;2.72;;;19.60;99.90;;;;;;5059188;28;20017;-75
2022/05/12 07:10:36;;;;;;;6.03;2.97;;;19.20;99.90;;;;;;5053936;28;20032;-75
2022/05/12 07:13:02;;;;;;;8.95;3.00;;;19.00;99.90;;;;;;5069419;28;20052;-75
2022/05/12 07:15:28;;;;;;;6.18;3.10;;;19.00;99.90;;;;;;5066470;28;20511;-75
2022/05/12 07:17:57;;;;;;;6.43;3.10;;;18.90;99.90;;;;;;5066600;28;20028;-72
2022/05/12 07:28:38;;;;;;;10.60;6.20;;;19.60;99.90;;;;;;5074463;28;20525;-74
2022/05/12 07:31:06;;;;;;;6.03;2.67;;;19.40;99.90;;;;;;5073576;28;20029;-74
2022/05/12 07:33:34;;;;;;;6.07;3.00;;;19.20;99.90;;;;;;5074315;28;20044;-74
2022/05/12 07:36:02;;;;;;;5.30;2.92;;;19.50;99.90;;;;;;5073978;28;20024;-74
2022/05/12 07:38:28;;;;;;;5.53;2.88;;;19.50;99.90;;;;;;5067598;28;20033;-76
2022/05/12 07:40:54;;;;;;;5.70;2.67;;;19.70;99.90;;;;;;5072473;28;20570;-77
2022/05/12 07:43:20;;;;;;;5.13;2.83;;;19.60;99.90;;;;;;5066894;28;20028;-78
2022/05/12 07:45:46;;;;;;;6.70;3.03;;;19.60;99.90;;;;;;5063676;28;20036;-76
2022/05/12 07:48:12;;;;;;;6.30;3.17;;;19.20;99.90;;;;;;5064796;28;20029;-77
2022/05/12 07:50:39;;;;;;;5.15;2.45;;;19.70;99.90;;;;;;5071046;28;20391;-78
2022/05/12 07:53:05;;;;;;;5.60;2.60;;;20.00;99.90;;;;;;5061085;28;20032;-76
2022/05/12 07:55:32;;;;;;;6.55;3.17;;;20.00;99.90;;;;;;5057948;28;20024;-77
2022/05/12 07:57:58;;;;;;;6.85;3.00;;;20.00;99.90;;;;;;5063993;28;20052;-76
2022/05/12 08:00:24;;;;;;;5.78;3.10;;;19.90;99.90;;;;;;5064903;28;20447;-76
2022/05/12 08:02:50;;;;;;;6.85;2.88;;;19.80;99.90;;;;;;5064754;28;20021;-76
2022/05/12 08:05:16;;;;;;;7.65;2.97;;;19.80;99.90;;;;;;5060022;28;20029;-74
2022/05/12 08:07:43;;;;;;;7.45;2.72;;;19.50;99.90;;;;;;5073548;28;20440;-74
2022/05/12 08:10:09;;;;;;;4.10;2.53;;;19.70;99.90;;;;;;5058716;28;20028;-75
2022/05/12 08:12:35;;;;;;;3.65;2.55;;;19.70;99.90;;;;;;5072946;28;20040;-75
2022/05/12 08:15:00;;;;;;;8.32;3.05;;;19.50;99.90;;;;;;5054903;28;20035;-75
2022/05/12 08:17:26;;;;;;;6.93;2.53;;;19.50;99.90;;;;;;5052505;28;20437;-74
2022/05/12 08:19:51;;;;;;;5.40;2.53;;;19.50;99.90;;;;;;5053323;28;20112;-75
2022/05/12 08:22:17;;;;;;;7.00;2.80;;;19.60;99.90;;;;;;5063703;28;20086;-75
2022/05/12 08:24:42;;;;;;;5.50;2.63;;;19.40;99.90;;;;;;5071751;28;20025;-74
2022/05/12 08:27:08;;;;;;;7.43;2.40;;;19.40;99.90;;;;;;5073227;28;20020;-75
2022/05/12 08:29:33;;;;;;;5.50;2.85;;;19.50;99.90;;;;;;5059525;28;20073;-74
2022/05/12 08:31:59;;;;;;;4.78;2.88;;;19.80;99.90;;;;;;5061791;28;20033;-75
2022/05/12 08:34:24;;;;;;;4.63;2.70;;;19.90;99.90;;;;;;5056961;28;20109;-75
2022/05/12 08:36:50;;;;;;;5.20;2.88;;;19.90;99.90;;;;;;5071609;28;20090;-75
2022/05/12 08:39:16;;;;;;;5.38;2.70;;;20.00;99.90;;;;;;5055595;28;20021;-75
2022/05/12 08:41:52;;;;;;;5.30;2.90;;;19.80;99.90;;;;;;5052142;28;20029;-75
2022/05/12 08:44:20;;;;;;;5.35;2.95;;;19.50;99.90;;;;;;5052439;28;20104;-75
2022/05/12 08:46:54;;;;;;;6.30;2.60;;;19.70;99.90;;;;;;5052855;28;20059;-74
2022/05/12 08:49:26;;;;;;;7.90;2.58;;;19.50;99.90;;;;;;5058568;28;20016;-74
2022/05/12 08:52:09;;;;;;;4.65;2.65;;;19.40;99.90;;;;;;5058675;28;20092;-74
2022/05/12 08:54:38;;;;;;;7.25;2.50;;;19.40;99.90;;;;;;5062682;28;20558;-74
2022/05/12 08:57:06;;;;;;;7.78;2.58;;;19.50;99.90;;;;;;5069568;28;20095;-75
2022/05/12 08:59:34;;;;;;;5.53;2.72;;;19.90;99.90;;;;;;5060429;28;20021;-74
2022/05/12 09:02:22;;;;;;;4.32;2.60;;;20.30;99.90;;;;;;5069090;28;20020;-75
2022/05/12 09:05:06;;;;;;;5.95;2.50;;;20.10;99.90;;;;;;5058387;28;20457;-75
2022/05/12 09:07:45;;;;;;;5.10;2.30;;;19.70;99.90;;;;;;5062372;28;20032;-75
2022/05/12 09:10:42;;;;;;;5.90;2.50;;;20.10;99.90;;;;;;5057357;28;20021;-75
2022/05/12 09:13:40;;;;;;;7.43;2.60;;;20.20;99.90;;;;;;5057541;28;20024;-75
2022/05/12 09:16:10;;;;;;;5.32;2.55;;;20.00;99.90;;;;;;5071400;28;20505;-75
2022/05/12 09:18:37;;;;;;;7.70;2.40;;;20.40;99.90;;;;;;5058087;28;20032;-74
2022/05/12 09:21:07;;;;;;;4.05;2.17;;;20.70;99.90;;;;;;5056913;28;20028;-75
2022/05/12 09:23:33;;;;;;;5.70;2.67;;;20.50;99.90;;;;;;5064496;28;20364;-74
2022/05/12 09:25:59;;;;;;;3.72;2.20;;;20.40;99.90;;;;;;5065314;28;20040;-74
2022/05/12 09:28:36;;;;;;;4.90;2.33;;;20.40;99.90;;;;;;5060028;28;20112;-74
2022/05/12 09:31:10;;;;;;;7.03;2.50;;;20.40;99.90;;;;;;5058108;28;20101;-74
2022/05/12 09:33:37;;;;;;;5.05;2.08;;;20.20;99.90;;;;;;5061414;28;20095;-75
2022/05/12 09:36:13;;;;;;;6.85;2.33;;;20.40;99.90;;;;;;5051757;28;20024;-75
2022/05/12 09:38:45;;;;;;;2.60;2.10;;;20.50;99.90;;;;;;5051924;28;20063;-75
2022/05/12 09:41:24;;;;;;;5.57;2.30;;;20.70;99.90;;;;;;5049967;28;20491;-75
2022/05/12 09:43:52;;;;;;;8.25;2.40;;;20.70;99.90;;;;;;5064634;28;20028;-74
2022/05/12 09:46:17;;;;;;;3.45;2.05;;;20.80;99.90;;;;;;5069983;28;20025;-75
2022/05/12 09:48:47;;;;;;;3.90;2.33;;;21.10;99.90;;;;;;5066932;28;20032;-75
2022/05/12 09:51:30;;;;;;;3.85;1.92;;;20.40;99.90;;;;;;5068949;28;20041;-75
2022/05/12 09:54:23;;;;;;;8.15;2.53;;;20.30;99.90;;;;;;5072758;28;20036;-74
2022/05/12 09:57:17;;;;;;;3.92;2.42;;;20.60;99.90;;;;;;5050362;28;20433;-75
2022/05/12 09:59:51;;;;;;;5.40;2.10;;;21.30;99.90;;;;;;5050560;28;20067;-75
2022/05/12 10:08:28;;;;;;;4.72;1.95;;;20.90;99.90;;;;;;5058332;28;20024;-75
2022/05/12 10:11:08;;;;;;;2.55;2.00;;;20.60;99.90;;;;;;5060793;28;20422;-75
2022/05/12 10:13:50;;;;;;;6.13;2.28;;;20.30;99.90;;;;;;5068362;28;20037;-75
2022/05/12 10:16:19;;;;;;;4.53;2.35;;;20.30;99.90;;;;;;5071517;28;20042;-75
2022/05/12 10:18:52;;;;;;;5.07;2.10;;;20.20;99.90;;;;;;5070087;28;20029;-75
2022/05/12 10:21:24;;;;;;;4.47;2.30;;;20.10;99.90;;;;;;5071047;28;20031;-75
2022/05/12 10:24:00;;;;;;;6.60;2.50;;;20.20;99.90;;;;;;5066454;28;20025;-75
2022/05/12 10:26:38;;;;;;;4.80;2.28;;;20.20;99.90;;;;;;5064480;28;20039;-74
2022/05/12 10:29:12;;;;;;;2.60;2.00;;;20.30;99.90;;;;;;5068787;28;20427;-75
2022/05/12 10:31:54;;;;;;;4.28;2.50;;;20.60;99.90;;;;;;5062940;28;20066;-74
2022/05/12 10:34:41;;;;;;;3.90;2.28;;;21.00;99.90;;;;;;5062047;28;20028;-75
2022/05/12 10:37:30;;;;;;;5.38;2.08;;;21.30;99.90;;;;;;5069786;28;20548;-74
2022/05/12 10:40:28;;;;;;;3.08;2.28;;;21.60;99.90;;;;;;5061791;28;20025;-75
2022/05/12 10:43:16;;;;;;;2.95;2.17;;;21.30;99.90;;;;;;5076182;28;20032;-75
2022/05/12 10:45:56;;;;;;;4.82;2.13;;;21.40;99.90;;;;;;5063026;28;20029;-75
2022/05/12 10:48:42;;;;;;;5.10;2.00;;;21.50;99.90;;;;;;5066628;28;20073;-75
2022/05/12 10:51:29;;;;;;;2.95;2.00;;;21.90;99.90;;;;;;5063875;28;20021;-75
2022/05/12 10:54:33;;;;;;;4.25;2.20;;;22.20;99.90;;;;;;5064210;28;20073;-76
2022/05/12 10:57:35;;;;;;;5.25;2.25;;;22.20;99.90;;;;;;5063199;28;20025;-76
2022/05/12 11:00:25;;;;;;;2.63;1.80;;;22.30;99.90;;;;;;5065263;28;20017;-75
2022/05/12 11:02:54;;;;;;;3.50;1.77;;;22.20;99.90;;;;;;5077798;28;20095;-75
2022/05/12 11:05:36;;;;;;;5.80;1.92;;;21.80;99.90;;;;;;5063841;28;20028;-75
2022/05/12 11:08:22;;;;;;;3.92;2.03;;;21.70;99.90;;;;;;5064402;28;20017;-76
2022/05/12 11:10:56;;;;;;;;;;;21.70;99.90;;;;;;5066910;28;20029;-75
2022/05/12 11:13:46;;;;;;;4.25;1.70;;;21.50;99.90;;;;;;5073646;28;19911;-75
2022/05/12 11:16:21;;;;;;;2.38;1.58;;;21.60;99.90;;;;;;5063574;28;20158;-75
2022/05/12 11:19:10;;;;;;;2.88;1.50;;;21.80;99.90;;;;;;5057702;28;20441;-75
2022/05/12 11:22:01;;;;;;;3.42;1.77;;;21.40;99.90;;;;;;5069119;28;20051;-75
2022/05/12 11:24:52;;;;;;;4.15;1.85;;;21.50;99.90;;;;;;5068562;28;20028;-75
2022/05/12 11:27:44;;;;;;;4.32;1.63;;;21.30;99.90;;;;;;5052898;28;20052;-75
2022/05/12 11:30:19;;;;;;;2.55;1.40;;;20.90;99.90;;;;;;5028557;28;20033;-75
2022/05/12 11:32:55;;;;;;;2.85;1.67;;;20.90;99.90;;;;;;5054370;28;20059;-75
2022/05/12 11:35:28;;;;;;;3.97;1.60;;;21.20;99.90;;;;;;5065390;28;20479;-75
2022/05/12 11:38:00;;;;;;;3.95;1.50;;;21.20;99.90;;;;;;5060783;28;20055;-75
2022/05/12 11:40:41;;;;;;;2.78;1.70;;;21.90;99.90;;;;;;5060966;28;20390;-75
2022/05/12 11:46:13;;;;;;;5.43;1.30;;;22.20;99.90;;;;;;5060637;28;20043;-76
2022/05/12 11:48:49;;;;;;;3.72;1.38;;;22.40;99.90;;;;;;5073872;28;20021;-75
2022/05/12 11:51:18;;;;;;;3.20;1.27;;;21.80;99.90;;;;;;5061571;28;20020;-75
2022/05/12 11:53:57;;;;;;;2.38;1.30;;;22.10;99.90;;;;;;5058309;28;20021;-75
2022/05/12 11:56:38;;;;;;;3.88;1.50;;;22.60;99.90;;;;;;5053813;28;20032;-75
2022/05/12 11:59:20;;;;;;;3.05;1.38;;;22.70;99.90;;;;;;5067145;28;20033;-75
2022/05/12 12:01:59;;;;;;;4.00;1.42;;;22.70;99.90;;;;;;5083287;28;20085;-75
2022/05/12 12:04:36;;;;;;;2.80;1.40;;;23.00;99.90;;;;;;5061428;28;20033;-75
2022/05/12 12:07:04;;;;;;;2.65;1.25;;;22.60;99.90;;;;;;5062518;28;20090;-75
2022/05/12 12:09:51;;;;;;;4.55;1.30;;;22.80;99.90;;;;;;5068992;28;20025;-75
2022/05/12 12:12:42;;;;;;;3.00;1.33;;;23.10;99.90;;;;;;5061368;28;20103;-76
2022/05/12 12:15:10;;;;;;;4.68;1.27;;;23.20;99.90;;;;;;5059940;28;20025;-75
2022/05/12 12:17:38;;;;;;;5.03;1.50;;;22.40;99.90;;;;;;5060961;28;20028;-76
2022/05/12 12:20:09;;;;;;;2.30;1.40;;;22.50;99.90;;;;;;5066969;28;20029;-76
2022/05/12 12:22:37;;;;;;;4.18;1.23;;;22.90;99.90;;;;;;5051574;28;20037;-76
2022/05/12 12:25:09;;;;;;;3.53;1.50;;;23.70;99.90;;;;;;5055356;28;20056;-76
2022/05/12 12:27:44;;;;;;;4.28;1.25;;;24.20;99.90;;;;;;5066500;28;20021;-76
2022/05/12 12:30:31;;;;;;;2.30;1.00;;;23.20;99.90;;;;;;5068506;28;20032;-76
2022/05/12 12:33:17;;;;;;;3.95;1.65;;;23.10;99.90;;;;;;5069872;28;20024;-75
2022/05/12 12:35:53;;;;;;;1.95;1.10;;;23.60;99.90;;;;;;5064762;28;20052;-76
2022/05/12 12:38:44;;;;;;;3.90;1.70;;;23.30;99.90;;;;;;5062332;28;20378;-76
2022/05/12 12:41:11;;;;;;;4.75;1.55;;;23.30;99.90;;;;;;5058885;28;20025;-76
2022/05/12 12:43:40;;;;;;;5.82;1.38;;;22.60;99.90;;;;;;5060321;28;20033;-75
2022/05/12 12:46:21;;;;;;;2.28;1.30;;;21.60;99.90;;;;;;5051466;28;20036;-75
2022/05/12 12:48:59;;;;;;;2.65;1.42;;;22.20;99.90;;;;;;5067558;28;20020;-75
2022/05/12 12:51:37;;;;;;;2.80;1.40;;;23.10;99.90;;;;;;5071912;28;20025;-75
2022/05/12 12:56:48;;;;;;;2.83;1.52;;;23.10;99.90;;;;;;5066234;28;20394;-75
2022/05/12 12:59:22;;;;;;;2.83;1.33;;;23.70;99.90;;;;;;5060228;28;20036;-75
2022/05/12 13:01:53;;;;;;;2.05;1.75;;;23.20;99.90;;;;;;5084751;28;20386;-76
2022/05/12 13:04:26;;;;;;;3.58;1.40;;;23.80;99.90;;;;;;5061083;28;20029;-76
2022/05/12 13:07:01;;;;;;;5.07;1.63;;;23.10;98.80;;;;;;5065985;28;20064;-76
2022/05/12 13:09:37;;;;;;;1.52;1.23;;;23.70;98.50;;;;;;5064310;28;20021;-76
2022/05/12 13:12:18;;;;;;;4.20;1.63;;;23.90;97.90;;;;;;5051996;28;20044;-76
2022/05/12 13:14:45;;;;;;;4.78;1.30;;;23.00;98.90;;;;;;5053979;28;20036;-75
2022/05/12 13:17:20;;;;;;;3.55;1.67;;;24.60;98.60;;;;;;5063687;28;20036;-76
2022/05/12 13:19:46;;;;;;;3.17;1.45;;;24.90;97.60;;;;;;5065666;28;20478;-75
2022/05/12 13:22:25;;;;;;;3.88;1.60;;;24.60;98.10;;;;;;5061832;28;20087;-75
2022/05/12 13:24:52;;;;;;;5.63;1.60;;;24.20;97.50;;;;;;5058673;28;20548;-75
2022/05/12 13:27:21;;;;;;;1.60;1.30;;;24.70;97.00;;;;;;5060579;28;20024;-77
2022/05/12 13:29:47;;;;;;;2.72;1.40;;;24.10;97.70;;;;;;5065858;28;20021;-75